createdAt,value
2023-01-29T00:02:07.470Z,102697.16
2023-01-29T00:04:35.427Z,102698.03
2023-01-29T00:07:03.394Z,102681.06
2023-01-29T00:09:32.069Z,102683.69
2023-01-29T00:12:00.039Z,102688.25
2023-01-29T00:14:28.688Z,102693.53
2023-01-29T00:16:56.690Z,102687.25
2023-01-29T00:19:26.034Z,102674.84
2023-01-29T00:21:53.914Z,102661.44
2023-01-29T00:24:22.325Z,102658.66
2023-01-29T00:26:50.536Z,102648.91
2023-01-29T00:29:18.662Z,102645.28
2023-01-29T00:31:47.336Z,102647.13
2023-01-29T00:34:15.361Z,102651.59
2023-01-29T00:36:45.663Z,102638.22
2023-01-29T00:39:13.563Z,102640.81
2023-01-29T00:41:58.890Z,102647.00
2023-01-29T00:44:44.061Z,102636.28
2023-01-29T00:47:30.922Z,102650.50
2023-01-29T00:49:59.149Z,102640.75
2023-01-29T00:52:28.867Z,102645.13
2023-01-29T00:54:58.480Z,102637.19
2023-01-29T00:57:27.679Z,102646.88
2023-01-29T00:59:55.604Z,102647.75
2023-01-29T01:02:41.693Z,102655.84
2023-01-29T01:05:18.015Z,102656.75
2023-01-29T01:07:48.490Z,102663.81
2023-01-29T01:10:21.262Z,102661.09
2023-01-29T01:12:51.754Z,102662.84
2023-01-29T01:15:19.995Z,102661.19
2023-01-29T01:17:48.951Z,102645.09
2023-01-29T01:20:17.159Z,102647.75
2023-01-29T01:22:45.303Z,102649.63
2023-01-29T01:25:14.673Z,102654.91
2023-01-29T01:27:42.773Z,102661.25
2023-01-29T01:30:12.628Z,102666.50
2023-01-29T01:32:41.331Z,102664.66
2023-01-29T01:35:10.348Z,102665.53
2023-01-29T01:37:38.772Z,102661.13
2023-01-29T01:40:12.858Z,102664.66
2023-01-29T01:42:42.263Z,102660.22
2023-01-29T01:45:19.991Z,102665.47
2023-01-29T01:47:49.500Z,102657.50
2023-01-29T01:50:19.985Z,102663.81
2023-01-29T01:52:52.024Z,102669.09
2023-01-29T01:55:22.398Z,102666.50
2023-01-29T01:57:54.411Z,102671.78
2023-01-29T02:00:23.633Z,102666.50
2023-01-29T02:03:09.272Z,102655.84
2023-01-29T02:05:55.491Z,102648.72
2023-01-29T02:08:45.979Z,102651.31
2023-01-29T02:11:14.553Z,102662.09
2023-01-29T02:13:43.879Z,102664.72
2023-01-29T02:16:11.760Z,102668.28
2023-01-29T02:18:39.726Z,102662.03
2023-01-29T02:21:25.420Z,102669.28
2023-01-29T02:24:17.375Z,102666.63
2023-01-29T02:26:56.933Z,102656.09
2023-01-29T02:29:34.511Z,102659.56
2023-01-29T02:32:14.368Z,102651.59
2023-01-29T02:35:06.164Z,102657.72
2023-01-29T02:37:39.498Z,102654.25
2023-01-29T02:40:15.603Z,102655.16
2023-01-29T02:42:50.191Z,102644.47
2023-01-29T02:45:20.748Z,102639.94
2023-01-29T02:47:53.690Z,102644.34
2023-01-29T02:50:23.607Z,102638.13
2023-01-29T02:52:59.469Z,102635.41
2023-01-29T02:55:31.994Z,102640.81
2023-01-29T02:58:04.687Z,102630.00
2023-01-29T03:00:37.896Z,102627.38
2023-01-29T03:03:10.492Z,102625.63
2023-01-29T03:05:45.103Z,102614.22
2023-01-29T03:08:16.778Z,102608.78
2023-01-29T03:10:49.355Z,102602.59
2023-01-29T03:13:20.580Z,102604.34
2023-01-29T03:16:01.494Z,102602.59
2023-01-29T03:18:32.431Z,102602.56
2023-01-29T03:21:24.956Z,102596.38
2023-01-29T03:24:11.379Z,102601.75
2023-01-29T03:26:57.129Z,102596.44
2023-01-29T03:29:42.200Z,102588.41
2023-01-29T03:32:12.205Z,102584.94
2023-01-29T03:34:43.704Z,102572.44
2023-01-29T03:37:16.004Z,102576.97
2023-01-29T03:39:43.982Z,102580.50
2023-01-29T03:42:17.121Z,102577.91
2023-01-29T03:44:54.726Z,102585.88
2023-01-29T03:47:27.331Z,102587.53
2023-01-29T03:50:00.249Z,102584.03
2023-01-29T03:52:30.411Z,102579.66
2023-01-29T03:55:01.994Z,102580.53
2023-01-29T03:57:35.277Z,102590.34
2023-01-29T04:00:08.514Z,102576.97
2023-01-29T04:02:43.681Z,102585.88
2023-01-29T04:05:15.409Z,102582.31
2023-01-29T04:07:45.240Z,102583.25
2023-01-29T04:10:17.238Z,102576.13
2023-01-29T04:12:48.978Z,102575.31
2023-01-29T04:15:17.791Z,102571.75
2023-01-29T04:17:51.706Z,102575.38
2023-01-29T04:20:19.891Z,102574.44
2023-01-29T04:22:49.512Z,102563.81
2023-01-29T04:25:26.524Z,102560.28
2023-01-29T04:27:59.446Z,102554.94
2023-01-29T04:30:34.619Z,102556.72
2023-01-29T04:33:12.683Z,102555.84
2023-01-29T04:35:49.236Z,102558.50
2023-01-29T04:38:33.404Z,102570.97
2023-01-29T04:41:06.840Z,102578.06
2023-01-29T04:43:40.138Z,102570.09
2023-01-29T04:46:13.996Z,102570.03
2023-01-29T04:48:51.471Z,102571.88
2023-01-29T04:51:23.992Z,102578.19
2023-01-29T04:53:58.373Z,102579.97
2023-01-29T04:56:32.591Z,102584.41
2023-01-29T04:59:03.470Z,102587.09
2023-01-29T05:01:33.266Z,102583.53
2023-01-29T05:04:05.861Z,102577.25
2023-01-29T05:06:33.809Z,102560.34
2023-01-29T05:09:02.277Z,102553.22
2023-01-29T05:11:32.067Z,102554.19
2023-01-29T05:14:00.279Z,102552.41
2023-01-29T05:16:30.052Z,102555.97
2023-01-29T05:18:58.034Z,102541.72
2023-01-29T05:21:28.373Z,102519.47
2023-01-29T05:24:10.609Z,102542.59
2023-01-29T05:26:56.044Z,102548.84
2023-01-29T05:29:24.015Z,102533.75
2023-01-29T05:31:51.952Z,102529.28
2023-01-29T05:34:19.966Z,102519.47
2023-01-29T05:36:49.243Z,102523.00
2023-01-29T05:39:17.216Z,102518.59
2023-01-29T05:41:45.675Z,102504.28
2023-01-29T05:44:14.025Z,102514.97
2023-01-29T05:46:42.014Z,102517.63
2023-01-29T05:49:09.967Z,102522.09
2023-01-29T05:51:37.903Z,102523.88
2023-01-29T05:54:07.249Z,102535.47
2023-01-29T05:56:35.123Z,102538.09
2023-01-29T05:59:03.040Z,102548.78
2023-01-29T06:01:30.969Z,102548.75
2023-01-29T06:03:58.953Z,102548.75
2023-01-29T06:06:26.851Z,102529.22
2023-01-29T06:08:54.804Z,102521.22
2023-01-29T06:11:24.171Z,102522.09
2023-01-29T06:13:52.119Z,102522.09
2023-01-29T06:16:20.133Z,102514.13
2023-01-29T06:18:48.026Z,102500.75
2023-01-29T06:21:16.250Z,102496.28
2023-01-29T06:23:44.829Z,102502.47
2023-01-29T06:26:13.936Z,102498.84
2023-01-29T06:28:43.895Z,102496.13
2023-01-29T06:31:30.397Z,102495.25
2023-01-29T06:34:00.108Z,102493.44
2023-01-29T06:36:28.125Z,102483.59
2023-01-29T06:38:56.031Z,102474.59
2023-01-29T06:41:25.590Z,102467.50
2023-01-29T06:43:55.037Z,102456.91
2023-01-29T06:46:22.920Z,102461.34
2023-01-29T06:48:50.882Z,102461.34
2023-01-29T06:51:18.789Z,102460.56
2023-01-29T06:53:47.033Z,102457.03
2023-01-29T06:56:15.014Z,102458.94
2023-01-29T06:58:43.610Z,102459.78
2023-01-29T07:01:25.465Z,102455.34
2023-01-29T07:04:01.152Z,102454.56
2023-01-29T07:06:29.956Z,102458.97
2023-01-29T07:08:58.058Z,102453.69
2023-01-29T07:11:25.986Z,102457.31
2023-01-29T07:13:53.891Z,102459.22
2023-01-29T07:16:23.528Z,102457.41
2023-01-29T07:18:51.538Z,102451.16
2023-01-29T07:21:19.509Z,102460.06
2023-01-29T07:23:47.422Z,102457.38
2023-01-29T07:26:15.400Z,102454.72
2023-01-29T07:28:43.324Z,102453.88
2023-01-29T07:31:13.874Z,102453.81
2023-01-29T07:33:44.377Z,102453.00
2023-01-29T07:36:13.008Z,102456.56
2023-01-29T07:38:40.946Z,102454.72
2023-01-29T07:41:08.942Z,102448.53
2023-01-29T07:43:36.980Z,102447.56
2023-01-29T07:46:05.739Z,102443.06
2023-01-29T07:48:33.834Z,102442.13
2023-01-29T07:51:03.265Z,102432.28
2023-01-29T07:53:31.860Z,102431.13
2023-01-29T07:55:59.761Z,102434.69
2023-01-29T07:58:27.744Z,102439.94
2023-01-29T08:00:55.669Z,102445.19
2023-01-29T08:03:23.626Z,102427.34
2023-01-29T08:05:51.520Z,102433.53
2023-01-29T08:08:20.864Z,102443.09
2023-01-29T08:10:48.764Z,102441.25
2023-01-29T08:13:16.668Z,102437.63
2023-01-29T08:15:46.170Z,102432.09
2023-01-29T08:18:14.525Z,102424.16
2023-01-29T08:20:42.462Z,102421.41
2023-01-29T08:23:14.915Z,102417.69
2023-01-29T08:25:44.272Z,102415.97
2023-01-29T08:28:12.812Z,102411.22
2023-01-29T08:30:40.824Z,102416.59
2023-01-29T08:33:08.838Z,102415.69
2023-01-29T08:35:36.957Z,102423.53
2023-01-29T08:38:05.859Z,102425.13
2023-01-29T08:40:35.119Z,102418.94
2023-01-29T08:43:08.754Z,102412.84
2023-01-29T08:45:38.725Z,102410.78
2023-01-29T08:48:07.465Z,102413.44
2023-01-29T08:50:35.564Z,102416.03
2023-01-29T08:53:04.896Z,102411.56
2023-01-29T08:55:32.770Z,102417.81
2023-01-29T08:58:00.706Z,102413.28
2023-01-29T09:00:29.998Z,102419.47
2023-01-29T09:02:59.547Z,102418.53
2023-01-29T09:05:27.564Z,102414.97
2023-01-29T09:07:57.736Z,102421.94
2023-01-29T09:10:25.893Z,102425.53
2023-01-29T09:12:54.001Z,102423.72
2023-01-29T09:15:21.899Z,102414.16
2023-01-29T09:17:51.174Z,102420.25
2023-01-29T09:20:20.609Z,102423.66
2023-01-29T09:22:49.412Z,102418.53
2023-01-29T09:25:17.681Z,102422.69
2023-01-29T09:27:45.786Z,102420.25
2023-01-29T09:30:14.358Z,102423.59
2023-01-29T09:32:57.555Z,102426.25
2023-01-29T09:35:26.909Z,102419.19
2023-01-29T09:37:54.794Z,102414.63
2023-01-29T09:40:27.327Z,102419.19
2023-01-29T09:42:59.378Z,102424.38
2023-01-29T09:45:29.142Z,102414.59
2023-01-29T09:47:59.775Z,102414.66
2023-01-29T09:50:32.733Z,102410.19
2023-01-29T09:53:04.707Z,102398.47
2023-01-29T09:55:35.334Z,102398.34
2023-01-29T09:58:07.596Z,102394.81
2023-01-29T10:00:39.179Z,102389.34
2023-01-29T10:03:22.470Z,102383.97
2023-01-29T10:06:05.885Z,102373.28
2023-01-29T10:08:56.028Z,102368.75
2023-01-29T10:11:34.374Z,102360.63
2023-01-29T10:14:09.167Z,102363.31
2023-01-29T10:16:46.533Z,102357.84
2023-01-29T10:19:39.848Z,102358.75
2023-01-29T10:22:22.632Z,102358.81
2023-01-29T10:24:54.032Z,102355.06
2023-01-29T10:27:22.503Z,102355.97
2023-01-29T10:29:52.393Z,102361.44
2023-01-29T10:32:24.835Z,102357.84
2023-01-29T10:34:57.653Z,102352.41
2023-01-29T10:37:30.133Z,102346.88
2023-01-29T10:40:00.036Z,102340.63
2023-01-29T10:42:31.307Z,102341.44
2023-01-29T10:45:08.413Z,102342.34
2023-01-29T10:47:55.843Z,102335.28
2023-01-29T10:50:33.785Z,102319.22
2023-01-29T10:53:18.002Z,102314.78
2023-01-29T10:55:55.259Z,102308.50
2023-01-29T10:58:29.537Z,102307.63
2023-01-29T11:00:57.676Z,102299.59
2023-01-29T11:03:28.860Z,102303.22
2023-01-29T11:06:03.056Z,102304.03
2023-01-29T11:08:35.929Z,102295.91
2023-01-29T11:11:09.464Z,102305.72
2023-01-29T11:13:40.050Z,102311.84
2023-01-29T11:16:09.789Z,102313.59
2023-01-29T11:18:51.560Z,102299.28
2023-01-29T11:21:19.437Z,102302.63
2023-01-29T11:23:49.150Z,102291.03
2023-01-29T11:26:20.816Z,102284.69
2023-01-29T11:28:49.857Z,102281.97
2023-01-29T11:31:23.520Z,102283.59
2023-01-29T11:33:54.106Z,102275.47
2023-01-29T11:36:28.432Z,102268.38
2023-01-29T11:39:14.703Z,102261.16
2023-01-29T11:41:44.774Z,102257.53
2023-01-29T11:44:23.919Z,102244.91
2023-01-29T11:46:51.878Z,102249.28
2023-01-29T11:49:34.305Z,102235.00
2023-01-29T11:52:04.253Z,102235.72
2023-01-29T11:54:37.868Z,102225.00
2023-01-29T11:57:06.026Z,102224.97
2023-01-29T11:59:42.771Z,102220.53
2023-01-29T12:02:24.053Z,102204.44
2023-01-29T12:04:52.292Z,102208.88
2023-01-29T12:07:20.354Z,102203.47
2023-01-29T12:09:56.377Z,102199.88
2023-01-29T12:12:33.472Z,102190.06
2023-01-29T12:15:26.016Z,102186.34
2023-01-29T12:18:00.489Z,102179.31
2023-01-29T12:20:35.346Z,102185.50
2023-01-29T12:23:10.387Z,102176.56
2023-01-29T12:25:45.022Z,102170.28
2023-01-29T12:28:32.676Z,102164.06
2023-01-29T12:31:10.552Z,102147.88
2023-01-29T12:33:44.883Z,102149.66
2023-01-29T12:36:18.375Z,102139.72
2023-01-29T12:38:46.520Z,102137.22
2023-01-29T12:41:26.581Z,102129.09
2023-01-29T12:43:57.474Z,102116.50
2023-01-29T12:46:28.620Z,102110.22
2023-01-29T12:48:58.816Z,102104.66
2023-01-29T12:51:30.846Z,102106.41
2023-01-29T12:54:02.182Z,102098.31
2023-01-29T12:56:34.557Z,102096.50
2023-01-29T12:59:06.859Z,102084.09
2023-01-29T13:01:36.783Z,102094.69
2023-01-29T13:04:08.145Z,102087.53
2023-01-29T13:06:41.627Z,102077.75
2023-01-29T13:09:14.319Z,102074.94
2023-01-29T13:11:46.838Z,102073.06
2023-01-29T13:14:20.552Z,102061.41
2023-01-29T13:16:51.447Z,102055.03
2023-01-29T13:19:24.574Z,102048.69
2023-01-29T13:21:54.110Z,102046.84
2023-01-29T13:24:24.547Z,102038.72
2023-01-29T13:26:54.542Z,102030.63
2023-01-29T13:29:24.509Z,102031.44
2023-01-29T13:31:54.521Z,102020.84
2023-01-29T13:34:24.853Z,102020.72
2023-01-29T13:36:54.229Z,102016.28
2023-01-29T13:39:26.416Z,102015.53
2023-01-29T13:41:56.500Z,102013.78
2023-01-29T13:44:27.122Z,102012.91
2023-01-29T13:47:00.178Z,102003.94
2023-01-29T13:49:34.881Z,102003.09
2023-01-29T13:52:17.602Z,101998.63
2023-01-29T13:54:52.431Z,102004.78
2023-01-29T13:57:47.804Z,102007.56
2023-01-29T14:00:58.675Z,101993.59
2023-01-29T14:04:09.976Z,101995.38
2023-01-29T14:06:50.941Z,101990.22
2023-01-29T14:09:56.194Z,101983.81
2023-01-29T14:12:37.867Z,101974.03
2023-01-29T14:15:22.830Z,101967.84
2023-01-29T14:18:15.463Z,101958.13
2023-01-29T14:20:52.985Z,101953.56
2023-01-29T14:23:31.430Z,101938.38
2023-01-29T14:26:02.302Z,101937.41
2023-01-29T14:28:33.547Z,101937.38
2023-01-29T14:31:01.641Z,101939.09
2023-01-29T14:33:35.223Z,101939.09
2023-01-29T14:36:06.219Z,101926.66
2023-01-29T14:38:34.690Z,101930.13
2023-01-29T14:41:09.555Z,101923.97
2023-01-29T14:43:38.887Z,101919.53
2023-01-29T14:46:44.636Z,101923.22
2023-01-29T14:49:12.681Z,101923.41
2023-01-29T14:51:43.419Z,101927.81
2023-01-29T14:54:23.931Z,101924.34
2023-01-29T14:57:00.549Z,101923.41
2023-01-29T14:59:34.628Z,101919.09
2023-01-29T15:02:05.339Z,101918.19
2023-01-29T15:04:38.029Z,101910.13
2023-01-29T15:07:13.291Z,101903.84
2023-01-29T15:09:45.705Z,101896.66
2023-01-29T15:12:22.047Z,101896.75
2023-01-29T15:15:01.331Z,101883.41
2023-01-29T15:17:31.333Z,101880.66
2023-01-29T15:19:59.210Z,101883.41
2023-01-29T15:22:29.136Z,101892.31
2023-01-29T15:25:08.538Z,101878.06
2023-01-29T15:27:36.513Z,101867.47
2023-01-29T15:30:08.332Z,101863.91
2023-01-29T15:32:38.325Z,101863.94
2023-01-29T15:35:10.202Z,101861.34
2023-01-29T15:37:38.653Z,101848.81
2023-01-29T15:40:15.406Z,101838.22
2023-01-29T15:42:46.684Z,101848.16
2023-01-29T15:45:28.721Z,101834.88
2023-01-29T15:48:00.553Z,101831.41
2023-01-29T15:50:29.923Z,101822.47
2023-01-29T15:52:59.888Z,101817.25
2023-01-29T15:55:28.705Z,101804.72
2023-01-29T15:57:57.563Z,101809.28
2023-01-29T16:00:29.695Z,101801.38
2023-01-29T16:02:58.500Z,101803.19
2023-01-29T16:05:28.833Z,101811.28
2023-01-29T16:07:57.279Z,101807.75
2023-01-29T16:10:26.854Z,101804.19
2023-01-29T16:12:54.888Z,101802.44
2023-01-29T16:15:31.567Z,101801.63
2023-01-29T16:18:01.130Z,101803.50
2023-01-29T16:20:38.409Z,101802.56
2023-01-29T16:23:06.850Z,101806.97
2023-01-29T16:25:38.957Z,101800.81
2023-01-29T16:28:08.248Z,101799.81
2023-01-29T16:30:38.422Z,101802.50
2023-01-29T16:33:07.935Z,101805.19
2023-01-29T16:35:36.525Z,101805.19
2023-01-29T16:38:06.730Z,101799.16
2023-01-29T16:40:37.311Z,101808.09
2023-01-29T16:43:46.817Z,101810.06
2023-01-29T16:46:23.430Z,101800.59
2023-01-29T16:48:51.620Z,101789.22
2023-01-29T16:51:25.043Z,101788.25
2023-01-29T16:54:00.771Z,101782.09
2023-01-29T16:56:31.569Z,101777.63
2023-01-29T16:58:59.707Z,101776.25
2023-01-29T17:01:30.368Z,101775.38
2023-01-29T17:04:05.817Z,101777.38
2023-01-29T17:06:33.898Z,101766.59
2023-01-29T17:09:02.237Z,101763.22
2023-01-29T17:11:34.660Z,101757.69
2023-01-29T17:14:03.279Z,101752.47
2023-01-29T17:16:34.295Z,101746.44
2023-01-29T17:19:02.674Z,101751.84
2023-01-29T17:21:30.877Z,101751.91
2023-01-29T17:23:58.769Z,101747.69
2023-01-29T17:26:26.957Z,101746.69
2023-01-29T17:28:55.381Z,101743.22
2023-01-29T17:31:23.790Z,101744.13
2023-01-29T17:33:53.154Z,101737.09
2023-01-29T17:36:21.147Z,101742.56
2023-01-29T17:38:49.047Z,101740.78
2023-01-29T17:41:20.407Z,101738.03
2023-01-29T17:43:48.629Z,101727.41
2023-01-29T17:46:18.356Z,101725.59
2023-01-29T17:48:49.195Z,101724.91
2023-01-29T17:51:19.187Z,101720.38
2023-01-29T17:53:47.778Z,101720.28
2023-01-29T17:56:19.585Z,101715.94
2023-01-29T17:58:47.539Z,101702.63
2023-01-29T18:01:15.492Z,101711.34
2023-01-29T18:03:43.511Z,101705.91
2023-01-29T18:06:12.779Z,101698.88
2023-01-29T18:08:42.067Z,101686.38
2023-01-29T18:11:12.238Z,101684.47
2023-01-29T18:14:13.771Z,101665.94
2023-01-29T18:16:43.430Z,101673.13
2023-01-29T18:19:15.238Z,101669.41
2023-01-29T18:21:43.167Z,101653.59
2023-01-29T18:24:12.464Z,101644.66
2023-01-29T18:29:30.267Z,101634.88
2023-01-29T18:31:58.594Z,101633.94
2023-01-29T18:34:26.624Z,101629.66
2023-01-29T18:36:54.547Z,101628.78
2023-01-29T18:39:24.022Z,101621.50
2023-01-29T18:41:52.112Z,101621.50
2023-01-29T18:44:20.230Z,101612.53
2023-01-29T18:46:48.140Z,101613.47
2023-01-29T18:49:16.055Z,101608.13
2023-01-29T18:51:44.034Z,101610.66
2023-01-29T18:54:12.916Z,101603.66
2023-01-29T18:57:13.295Z,101589.47
2023-01-29T18:59:30.314Z,101575.09
2023-01-29T19:01:58.363Z,101568.75
2023-01-29T19:04:26.327Z,101565.22
2023-01-29T19:06:54.226Z,101571.47
2023-01-29T19:09:22.180Z,101571.34
2023-01-29T19:11:51.511Z,101569.75
2023-01-29T19:14:19.535Z,101557.19
2023-01-29T19:16:47.456Z,101576.75
2023-01-29T19:19:15.452Z,101552.56
2023-01-29T19:21:43.410Z,101558.69
2023-01-29T19:24:11.992Z,101551.72
2023-01-29T19:26:39.980Z,101535.75
2023-01-29T19:29:09.684Z,101531.28
2023-01-29T19:31:37.639Z,101523.13
2023-01-29T19:34:05.612Z,101532.00
2023-01-29T19:36:33.533Z,101530.19
2023-01-29T19:39:01.419Z,101527.66
2023-01-29T19:41:29.429Z,101510.75
2023-01-29T19:43:57.333Z,101517.69
2023-01-29T19:46:26.655Z,101515.81
2023-01-29T19:48:54.938Z,101501.72
2023-01-29T19:51:23.412Z,101501.72
2023-01-29T19:53:51.312Z,101490.13
2023-01-29T19:56:20.048Z,101499.88
2023-01-29T19:58:48.850Z,101496.41
2023-01-29T20:01:18.355Z,101504.22
2023-01-29T20:03:49.172Z,101504.22
2023-01-29T20:06:18.446Z,101490.00
2023-01-29T20:08:47.076Z,101483.78
2023-01-29T20:11:15.611Z,101489.03
2023-01-29T20:13:43.515Z,101483.66
2023-01-29T20:16:11.477Z,101467.59
2023-01-29T20:18:39.411Z,101465.75
2023-01-29T20:21:10.340Z,101458.59
2023-01-29T20:23:39.014Z,101467.44
2023-01-29T20:26:07.349Z,101462.91
2023-01-29T20:28:35.835Z,101441.41
2023-01-29T20:31:04.181Z,101451.19
2023-01-29T20:33:32.339Z,101451.19
2023-01-29T20:36:01.889Z,101436.78
2023-01-29T20:38:31.849Z,101442.16
2023-01-29T20:41:04.468Z,101426.16
2023-01-29T20:43:32.399Z,101420.75
2023-01-29T20:46:00.584Z,101416.25
2023-01-29T20:48:28.560Z,101403.66
2023-01-29T20:50:56.747Z,101403.59
2023-01-29T20:53:24.665Z,101395.50
2023-01-29T20:55:54.091Z,101385.63
2023-01-29T20:58:22.480Z,101390.16
2023-01-29T21:00:50.384Z,101397.22
2023-01-29T21:03:18.286Z,101394.50
2023-01-29T21:05:46.445Z,101367.59
2023-01-29T21:08:14.381Z,101368.44
2023-01-29T21:10:43.368Z,101371.03
2023-01-29T21:13:12.864Z,101362.16
2023-01-29T21:15:40.832Z,101353.09
2023-01-29T21:18:08.729Z,101354.75
2023-01-29T21:20:36.684Z,101357.53
2023-01-29T21:23:06.955Z,101358.31
2023-01-29T21:25:35.319Z,101361.78
2023-01-29T21:28:04.421Z,101331.31
2023-01-29T21:30:34.308Z,101334.72
2023-01-29T21:33:02.200Z,101337.38
2023-01-29T21:35:30.154Z,101329.28
2023-01-29T21:37:58.160Z,101315.88
2023-01-29T21:40:26.259Z,101325.44
2023-01-29T21:43:11.527Z,101308.50
2023-01-29T21:45:41.530Z,101305.13
2023-01-29T21:48:10.385Z,101308.44
2023-01-29T21:50:38.850Z,101317.16
2023-01-29T21:53:07.055Z,101307.31
2023-01-29T21:55:35.004Z,101307.31
2023-01-29T21:58:02.967Z,101309.22
2023-01-29T22:00:31.017Z,101308.97
2023-01-29T22:03:00.516Z,101303.63
2023-01-29T22:05:29.189Z,101304.41
2023-01-29T22:07:57.479Z,101297.19
2023-01-29T22:10:25.533Z,101291.09
2023-01-29T22:12:55.553Z,101290.31
2023-01-29T22:15:24.093Z,101256.53
2023-01-29T22:17:52.228Z,101248.66
2023-01-29T22:20:29.557Z,101254.06
2023-01-29T22:22:59.482Z,101255.97
2023-01-29T22:25:27.930Z,101256.09
2023-01-29T22:27:55.851Z,101256.75
2023-01-29T22:30:24.275Z,101257.94
2023-01-29T22:32:52.250Z,101237.47
2023-01-29T22:35:21.567Z,101235.50
2023-01-29T22:37:49.471Z,101238.97
2023-01-29T22:40:17.817Z,101236.28
2023-01-29T22:42:45.929Z,101231.97
2023-01-29T22:45:13.831Z,101223.91
2023-01-29T22:47:41.764Z,101226.50
2023-01-29T22:50:10.843Z,101211.47
2023-01-29T22:52:42.643Z,101202.56
2023-01-29T22:55:12.227Z,101191.66
2023-01-29T22:57:40.575Z,101193.44
2023-01-29T23:00:11.549Z,101173.75
2023-01-29T23:02:39.513Z,101173.59
2023-01-29T23:05:08.446Z,101168.16
2023-01-29T23:07:36.474Z,101152.41
2023-01-29T23:10:07.237Z,101152.97
2023-01-29T23:12:35.199Z,101131.88
2023-01-29T23:15:03.134Z,101124.38
2023-01-29T23:17:31.143Z,101136.81
2023-01-29T23:19:59.121Z,101111.69
2023-01-29T23:22:27.076Z,101093.97
2023-01-29T23:24:55.035Z,101109.88
2023-01-29T23:27:23.308Z,101099.94
2023-01-29T23:29:51.229Z,101089.97
2023-01-29T23:32:20.483Z,101097.91
2023-01-29T23:34:48.516Z,101095.22
2023-01-29T23:37:16.422Z,101100.50
2023-01-29T23:39:44.308Z,101073.72
2023-01-29T23:42:12.490Z,101088.75
2023-01-29T23:44:41.825Z,101096.69
2023-01-29T23:47:10.219Z,101112.69
2023-01-29T23:49:38.451Z,101099.22
2023-01-29T23:52:06.707Z,101092.13
2023-01-29T23:54:34.617Z,101082.38
2023-01-29T23:57:02.595Z,101069.50
2023-01-29T23:59:30.574Z,101066.03
